<?xml version="1.0" encoding="UTF-8"?><gpx creator="Wikiloc - https://www.wikiloc.com" version="1.1" xmlns="http://www.topografix.com/GPX/1/1" xmlns:xsi="http://www.w3.org/2001/XMLSchema-instance" xsi:schemaLocation="http://www.topografix.com/GPX/1/1 http://www.topografix.com/GPX/1/1/gpx.xsd"><wpt lat="39.203539" lon="-7.173982"><ele>0.0</ele><time>2011-05-29T23:14:13Z</time><name>CASTILLO</name><cmt></cmt><desc></desc></wpt><wpt lat="39.196311" lon="-7.167070"><ele>0.0</ele><time>2011-05-29T23:14:59Z</time><name>PISTAS MOTOS</name><cmt></cmt><desc></desc></wpt><wpt lat="39.180880" lon="-7.169891"><ele>0.0</ele><time>2011-05-29T23:15:49Z</time><name>EL MARCO</name><cmt></cmt><desc></desc></wpt><wpt lat="39.205762" lon="-7.176256"><ele>0.0</ele><time>2011-06-14T20:56:43Z</time><name>PANEL INICIO</name><cmt></cmt><desc></desc></wpt><trk><name>SL-BA 251 'El Marco' (La Codosera)</name><cmt></cmt><desc></desc><trkseg><trkpt lat="39.205740" lon="-7.176300"><ele>359.7</ele><time>2011-05-27T13:16:27Z</time></trkpt><trkpt lat="39.205710" lon="-7.176240"><ele>360.2</ele><time>2011-05-27T13:21:39Z</time></trkpt><trkpt lat="39.205700" lon="-7.176230"><ele>359.7</ele><time>2011-05-27T13:21:46Z</time></trkpt><trkpt lat="39.205540" lon="-7.176100"><ele>359.2</ele><time>2011-05-27T13:21:55Z</time></trkpt><trkpt lat="39.205290" lon="-7.175940"><ele>357.7</ele><time>2011-05-27T13:24:55Z</time></trkpt><trkpt lat="39.205030" lon="-7.175450"><ele>357.3</ele><time>2011-05-27T13:25:08Z</time></trkpt><trkpt lat="39.205080" lon="-7.174870"><ele>348.6</ele><time>2011-05-27T13:25:21Z</time></trkpt><trkpt lat="39.205110" lon="-7.174610"><ele>349.6</ele><time>2011-05-27T13:25:31Z</time></trkpt><trkpt lat="39.205140" lon="-7.174280"><ele>351.0</ele><time>2011-05-27T13:27:00Z</time></trkpt><trkpt lat="39.205170" lon="-7.173700"><ele>351.0</ele><time>2011-05-27T13:27:14Z</time></trkpt><trkpt lat="39.205080" lon="-7.173220"><ele>355.8</ele><time>2011-05-27T13:27:26Z</time></trkpt><trkpt lat="39.204900" lon="-7.172570"><ele>362.6</ele><time>2011-05-27T13:27:37Z</time></trkpt><trkpt lat="39.204870" lon="-7.172270"><ele>357.7</ele><time>2011-05-27T13:27:46Z</time></trkpt><trkpt lat="39.204830" lon="-7.172230"><ele>356.3</ele><time>2011-05-27T13:27:50Z</time></trkpt><trkpt lat="39.204790" lon="-7.172080"><ele>357.7</ele><time>2011-05-27T13:27:54Z</time></trkpt><trkpt lat="39.204710" lon="-7.171800"><ele>353.4</ele><time>2011-05-27T13:27:59Z</time></trkpt><trkpt lat="39.204620" lon="-7.171410"><ele>346.2</ele><time>2011-05-27T13:28:09Z</time></trkpt><trkpt lat="39.204620" lon="-7.171400"><ele>345.7</ele><time>2011-05-27T13:28:24Z</time></trkpt><trkpt lat="39.204490" lon="-7.170940"><ele>346.7</ele><time>2011-05-27T13:31:55Z</time></trkpt><trkpt lat="39.204440" lon="-7.170850"><ele>349.1</ele><time>2011-05-27T13:32:04Z</time></trkpt><trkpt lat="39.204280" lon="-7.170770"><ele>351.0</ele><time>2011-05-27T13:32:34Z</time></trkpt><trkpt lat="39.204230" lon="-7.170730"><ele>351.5</ele><time>2011-05-27T13:32:35Z</time></trkpt><trkpt lat="39.203910" lon="-7.170340"><ele>353.4</ele><time>2011-05-27T13:32:46Z</time></trkpt><trkpt lat="39.203760" lon="-7.170160"><ele>355.3</ele><time>2011-05-27T13:32:53Z</time></trkpt><trkpt lat="39.203600" lon="-7.169970"><ele>354.9</ele><time>2011-05-27T13:32:58Z</time></trkpt><trkpt lat="39.203170" lon="-7.169720"><ele>358.2</ele><time>2011-05-27T13:33:09Z</time></trkpt><trkpt lat="39.202560" lon="-7.169590"><ele>356.8</ele><time>2011-05-27T13:33:21Z</time></trkpt><trkpt lat="39.202380" lon="-7.169550"><ele>357.3</ele><time>2011-05-27T13:33:31Z</time></trkpt><trkpt lat="39.202230" lon="-7.169490"><ele>359.2</ele><time>2011-05-27T13:33:41Z</time></trkpt><trkpt lat="39.202200" lon="-7.169500"><ele>358.2</ele><time>2011-05-27T13:35:16Z</time></trkpt><trkpt lat="39.202170" lon="-7.169440"><ele>358.2</ele><time>2011-05-27T13:35:32Z</time></trkpt><trkpt lat="39.202110" lon="-7.169420"><ele>357.7</ele><time>2011-05-27T13:41:07Z</time></trkpt><trkpt lat="39.202060" lon="-7.169450"><ele>357.3</ele><time>2011-05-27T13:41:16Z</time></trkpt><trkpt lat="39.201300" lon="-7.169090"><ele>364.5</ele><time>2011-05-27T13:41:29Z</time></trkpt><trkpt lat="39.200560" lon="-7.168740"><ele>368.8</ele><time>2011-05-27T13:41:38Z</time></trkpt><trkpt lat="39.199560" lon="-7.168340"><ele>378.4</ele><time>2011-05-27T13:41:50Z</time></trkpt><trkpt lat="39.199090" lon="-7.168120"><ele>382.7</ele><time>2011-05-27T13:41:56Z</time></trkpt><trkpt lat="39.198240" lon="-7.168150"><ele>390.9</ele><time>2011-05-27T13:42:05Z</time></trkpt><trkpt lat="39.197730" lon="-7.168180"><ele>396.2</ele><time>2011-05-27T13:42:13Z</time></trkpt><trkpt lat="39.197320" lon="-7.168420"><ele>402.5</ele><time>2011-05-27T13:42:21Z</time></trkpt><trkpt lat="39.197230" lon="-7.168500"><ele>408.7</ele><time>2011-05-27T13:42:55Z</time></trkpt><trkpt lat="39.196930" lon="-7.168680"><ele>407.2</ele><time>2011-05-27T13:43:06Z</time></trkpt><trkpt lat="39.196910" lon="-7.168680"><ele>406.8</ele><time>2011-05-27T13:44:35Z</time></trkpt><trkpt lat="39.196730" lon="-7.168670"><ele>405.3</ele><time>2011-05-27T13:44:46Z</time></trkpt><trkpt lat="39.196630" lon="-7.168700"><ele>405.8</ele><time>2011-05-27T13:45:06Z</time></trkpt><trkpt lat="39.196240" lon="-7.168650"><ele>405.3</ele><time>2011-05-27T13:45:13Z</time></trkpt><trkpt lat="39.195710" lon="-7.168260"><ele>405.3</ele><time>2011-05-27T13:45:23Z</time></trkpt><trkpt lat="39.195420" lon="-7.168120"><ele>406.8</ele><time>2011-05-27T13:45:34Z</time></trkpt><trkpt lat="39.195086" lon="-7.168012"><ele>406.0</ele><time>2011-05-27T13:45:45Z</time></trkpt><trkpt lat="39.194614" lon="-7.167984"><ele>405.0</ele><time>2011-05-27T13:50:03Z</time></trkpt><trkpt lat="39.192991" lon="-7.167396"><ele>403.0</ele><time>2011-05-27T13:50:31Z</time></trkpt><trkpt lat="39.192025" lon="-7.167339"><ele>398.0</ele><time>2011-05-27T13:52:08Z</time></trkpt><trkpt lat="39.191160" lon="-7.167606"><ele>400.5</ele><time>2011-05-27T13:52:21Z</time></trkpt><trkpt lat="39.190460" lon="-7.167820"><ele>403.4</ele><time>2011-05-27T13:52:26Z</time></trkpt><trkpt lat="39.190130" lon="-7.167820"><ele>403.4</ele><time>2011-05-27T13:52:34Z</time></trkpt><trkpt lat="39.189650" lon="-7.168260"><ele>402.9</ele><time>2011-05-27T13:52:48Z</time></trkpt><trkpt lat="39.189420" lon="-7.168400"><ele>401.5</ele><time>2011-05-27T13:52:57Z</time></trkpt><trkpt lat="39.189450" lon="-7.168410"><ele>406.8</ele><time>2011-05-27T13:54:34Z</time></trkpt><trkpt lat="39.189060" lon="-7.168600"><ele>406.8</ele><time>2011-05-27T13:54:46Z</time></trkpt><trkpt lat="39.188410" lon="-7.168790"><ele>409.7</ele><time>2011-05-27T13:55:01Z</time></trkpt><trkpt lat="39.187900" lon="-7.168900"><ele>415.9</ele><time>2011-05-27T13:55:15Z</time></trkpt><trkpt lat="39.187460" lon="-7.169120"><ele>416.9</ele><time>2011-05-27T13:55:28Z</time></trkpt><trkpt lat="39.187030" lon="-7.169270"><ele>418.3</ele><time>2011-05-27T13:55:40Z</time></trkpt><trkpt lat="39.186600" lon="-7.169370"><ele>421.7</ele><time>2011-05-27T13:55:57Z</time></trkpt><trkpt lat="39.186480" lon="-7.169290"><ele>422.6</ele><time>2011-05-27T13:56:06Z</time></trkpt><trkpt lat="39.186410" lon="-7.169140"><ele>431.3</ele><time>2011-05-27T13:56:36Z</time></trkpt><trkpt lat="39.186010" lon="-7.169320"><ele>434.2</ele><time>2011-05-27T13:56:48Z</time></trkpt><trkpt lat="39.185620" lon="-7.169570"><ele>436.1</ele><time>2011-05-27T13:57:00Z</time></trkpt><trkpt lat="39.185180" lon="-7.169740"><ele>425.0</ele><time>2011-05-27T13:57:12Z</time></trkpt><trkpt lat="39.185110" lon="-7.169790"><ele>418.8</ele><time>2011-05-27T13:57:23Z</time></trkpt><trkpt lat="39.185050" lon="-7.169770"><ele>409.7</ele><time>2011-05-27T14:00:58Z</time></trkpt><trkpt lat="39.184860" lon="-7.169840"><ele>406.8</ele><time>2011-05-27T14:01:15Z</time></trkpt><trkpt lat="39.184600" lon="-7.169980"><ele>397.6</ele><time>2011-05-27T14:01:29Z</time></trkpt><trkpt lat="39.184380" lon="-7.170040"><ele>392.8</ele><time>2011-05-27T14:01:34Z</time></trkpt><trkpt lat="39.183770" lon="-7.169840"><ele>376.0</ele><time>2011-05-27T14:01:48Z</time></trkpt><trkpt lat="39.183640" lon="-7.169780"><ele>372.2</ele><time>2011-05-27T14:01:50Z</time></trkpt><trkpt lat="39.183080" lon="-7.169620"><ele>365.4</ele><time>2011-05-27T14:02:01Z</time></trkpt><trkpt lat="39.182830" lon="-7.169690"><ele>365.4</ele><time>2011-05-27T14:02:21Z</time></trkpt><trkpt lat="39.182330" lon="-7.169930"><ele>365.0</ele><time>2011-05-27T14:02:33Z</time></trkpt><trkpt lat="39.182270" lon="-7.169990"><ele>362.1</ele><time>2011-05-27T14:02:43Z</time></trkpt><trkpt lat="39.182240" lon="-7.169810"><ele>362.6</ele><time>2011-05-27T14:06:54Z</time></trkpt><trkpt lat="39.182260" lon="-7.169140"><ele>364.0</ele><time>2011-05-27T14:07:09Z</time></trkpt><trkpt lat="39.182240" lon="-7.168930"><ele>360.6</ele><time>2011-05-27T14:07:20Z</time></trkpt><trkpt lat="39.182260" lon="-7.168930"><ele>356.3</ele><time>2011-05-27T14:10:02Z</time></trkpt><trkpt lat="39.182280" lon="-7.168980"><ele>355.8</ele><time>2011-05-27T14:10:15Z</time></trkpt><trkpt lat="39.182280" lon="-7.168970"><ele>355.8</ele><time>2011-05-27T14:10:19Z</time></trkpt><trkpt lat="39.182140" lon="-7.168540"><ele>355.8</ele><time>2011-05-27T14:10:31Z</time></trkpt><trkpt lat="39.182090" lon="-7.168130"><ele>352.5</ele><time>2011-05-27T14:10:42Z</time></trkpt><trkpt lat="39.182030" lon="-7.167880"><ele>352.5</ele><time>2011-05-27T14:10:48Z</time></trkpt><trkpt lat="39.181630" lon="-7.167280"><ele>351.0</ele><time>2011-05-27T14:11:04Z</time></trkpt><trkpt lat="39.181490" lon="-7.166550"><ele>346.7</ele><time>2011-05-27T14:11:17Z</time></trkpt><trkpt lat="39.181340" lon="-7.165680"><ele>342.4</ele><time>2011-05-27T14:11:32Z</time></trkpt><trkpt lat="39.181260" lon="-7.164940"><ele>337.6</ele><time>2011-05-27T14:11:46Z</time></trkpt><trkpt lat="39.181370" lon="-7.163930"><ele>350.6</ele><time>2011-05-27T14:12:03Z</time></trkpt><trkpt lat="39.181660" lon="-7.163110"><ele>355.8</ele><time>2011-05-27T14:12:13Z</time></trkpt><trkpt lat="39.181750" lon="-7.162960"><ele>356.8</ele><time>2011-05-27T14:12:15Z</time></trkpt><trkpt lat="39.181790" lon="-7.162610"><ele>358.2</ele><time>2011-05-27T14:12:21Z</time></trkpt><trkpt lat="39.181630" lon="-7.161780"><ele>358.7</ele><time>2011-05-27T14:12:30Z</time></trkpt><trkpt lat="39.181630" lon="-7.161760"><ele>355.8</ele><time>2011-05-27T14:12:45Z</time></trkpt><trkpt lat="39.181620" lon="-7.161710"><ele>355.8</ele><time>2011-05-27T14:13:23Z</time></trkpt><trkpt lat="39.181570" lon="-7.161370"><ele>356.3</ele><time>2011-05-27T14:14:22Z</time></trkpt><trkpt lat="39.181570" lon="-7.160820"><ele>355.8</ele><time>2011-05-27T14:14:37Z</time></trkpt><trkpt lat="39.181540" lon="-7.160420"><ele>358.7</ele><time>2011-05-27T14:14:51Z</time></trkpt><trkpt lat="39.181520" lon="-7.160320"><ele>358.7</ele><time>2011-05-27T14:15:32Z</time></trkpt><trkpt lat="39.181460" lon="-7.159210"><ele>358.7</ele><time>2011-05-27T14:15:42Z</time></trkpt><trkpt lat="39.181542" lon="-7.158301"><ele>357.7</ele><time>2011-05-27T14:15:47Z</time></trkpt><trkpt lat="39.182310" lon="-7.158230"><ele>359.2</ele><time>2011-05-27T14:15:54Z</time></trkpt><trkpt lat="39.182830" lon="-7.158100"><ele>347.7</ele><time>2011-05-27T14:18:10Z</time></trkpt><trkpt lat="39.182750" lon="-7.158100"><ele>352.9</ele><time>2011-05-27T14:18:21Z</time></trkpt><trkpt lat="39.182850" lon="-7.158060"><ele>355.8</ele><time>2011-05-27T14:18:39Z</time></trkpt><trkpt lat="39.183070" lon="-7.158120"><ele>354.9</ele><time>2011-05-27T14:18:48Z</time></trkpt><trkpt lat="39.183080" lon="-7.158140"><ele>356.3</ele><time>2011-05-27T14:19:26Z</time></trkpt><trkpt lat="39.183200" lon="-7.158150"><ele>356.8</ele><time>2011-05-27T14:19:30Z</time></trkpt><trkpt lat="39.183430" lon="-7.158200"><ele>358.7</ele><time>2011-05-27T14:19:34Z</time></trkpt><trkpt lat="39.183610" lon="-7.158270"><ele>361.6</ele><time>2011-05-27T14:19:38Z</time></trkpt><trkpt lat="39.184380" lon="-7.158290"><ele>371.2</ele><time>2011-05-27T14:19:52Z</time></trkpt><trkpt lat="39.184600" lon="-7.158270"><ele>374.1</ele><time>2011-05-27T14:19:56Z</time></trkpt><trkpt lat="39.184840" lon="-7.158290"><ele>379.4</ele><time>2011-05-27T14:20:01Z</time></trkpt><trkpt lat="39.185250" lon="-7.158300"><ele>384.7</ele><time>2011-05-27T14:20:13Z</time></trkpt><trkpt lat="39.185320" lon="-7.158340"><ele>384.2</ele><time>2011-05-27T14:20:15Z</time></trkpt><trkpt lat="39.185700" lon="-7.158630"><ele>378.9</ele><time>2011-05-27T14:20:27Z</time></trkpt><trkpt lat="39.185810" lon="-7.158740"><ele>378.9</ele><time>2011-05-27T14:20:29Z</time></trkpt><trkpt lat="39.186230" lon="-7.159350"><ele>379.9</ele><time>2011-05-27T14:20:40Z</time></trkpt><trkpt lat="39.186510" lon="-7.159520"><ele>377.0</ele><time>2011-05-27T14:20:51Z</time></trkpt><trkpt lat="39.186570" lon="-7.159530"><ele>377.0</ele><time>2011-05-27T14:21:06Z</time></trkpt><trkpt lat="39.186680" lon="-7.159610"><ele>375.5</ele><time>2011-05-27T14:21:15Z</time></trkpt><trkpt lat="39.186800" lon="-7.159730"><ele>376.5</ele><time>2011-05-27T14:21:48Z</time></trkpt><trkpt lat="39.186860" lon="-7.159790"><ele>376.5</ele><time>2011-05-27T14:21:49Z</time></trkpt><trkpt lat="39.187000" lon="-7.159910"><ele>377.5</ele><time>2011-05-27T14:21:53Z</time></trkpt><trkpt lat="39.187620" lon="-7.160350"><ele>377.0</ele><time>2011-05-27T14:22:09Z</time></trkpt><trkpt lat="39.188310" lon="-7.160500"><ele>376.5</ele><time>2011-05-27T14:22:35Z</time></trkpt><trkpt lat="39.188570" lon="-7.160460"><ele>377.0</ele><time>2011-05-27T14:22:39Z</time></trkpt><trkpt lat="39.188630" lon="-7.160350"><ele>377.9</ele><time>2011-05-27T14:22:47Z</time></trkpt><trkpt lat="39.188790" lon="-7.160150"><ele>379.4</ele><time>2011-05-27T14:23:02Z</time></trkpt><trkpt lat="39.189410" lon="-7.159910"><ele>385.1</ele><time>2011-05-27T14:23:14Z</time></trkpt><trkpt lat="39.189640" lon="-7.159830"><ele>384.2</ele><time>2011-05-27T14:23:18Z</time></trkpt><trkpt lat="39.189760" lon="-7.159750"><ele>383.7</ele><time>2011-05-27T14:23:21Z</time></trkpt><trkpt lat="39.190220" lon="-7.159360"><ele>383.2</ele><time>2011-05-27T14:23:29Z</time></trkpt><trkpt lat="39.190330" lon="-7.159260"><ele>382.7</ele><time>2011-05-27T14:23:32Z</time></trkpt><trkpt lat="39.190940" lon="-7.159090"><ele>382.7</ele><time>2011-05-27T14:23:40Z</time></trkpt><trkpt lat="39.191660" lon="-7.159250"><ele>380.3</ele><time>2011-05-27T14:23:51Z</time></trkpt><trkpt lat="39.191980" lon="-7.159510"><ele>382.2</ele><time>2011-05-27T14:23:56Z</time></trkpt><trkpt lat="39.192220" lon="-7.159770"><ele>385.1</ele><time>2011-05-27T14:24:04Z</time></trkpt><trkpt lat="39.192330" lon="-7.159920"><ele>387.1</ele><time>2011-05-27T14:24:14Z</time></trkpt><trkpt lat="39.192490" lon="-7.159960"><ele>387.6</ele><time>2011-05-27T14:24:27Z</time></trkpt><trkpt lat="39.192700" lon="-7.159970"><ele>389.0</ele><time>2011-05-27T14:25:03Z</time></trkpt><trkpt lat="39.192840" lon="-7.159990"><ele>390.4</ele><time>2011-05-27T14:25:06Z</time></trkpt><trkpt lat="39.193090" lon="-7.160130"><ele>393.3</ele><time>2011-05-27T14:25:12Z</time></trkpt><trkpt lat="39.193420" lon="-7.160270"><ele>393.8</ele><time>2011-05-27T14:25:17Z</time></trkpt><trkpt lat="39.193700" lon="-7.160510"><ele>398.1</ele><time>2011-05-27T14:25:21Z</time></trkpt><trkpt lat="39.193910" lon="-7.160820"><ele>400.5</ele><time>2011-05-27T14:25:26Z</time></trkpt><trkpt lat="39.194070" lon="-7.161020"><ele>401.0</ele><time>2011-05-27T14:25:35Z</time></trkpt><trkpt lat="39.194060" lon="-7.161010"><ele>400.5</ele><time>2011-05-27T14:25:45Z</time></trkpt><trkpt lat="39.194220" lon="-7.161370"><ele>397.6</ele><time>2011-05-27T14:25:56Z</time></trkpt><trkpt lat="39.194310" lon="-7.161600"><ele>395.7</ele><time>2011-05-27T14:26:04Z</time></trkpt><trkpt lat="39.194400" lon="-7.161730"><ele>395.7</ele><time>2011-05-27T14:26:31Z</time></trkpt><trkpt lat="39.194510" lon="-7.161610"><ele>396.2</ele><time>2011-05-27T14:27:20Z</time></trkpt><trkpt lat="39.194510" lon="-7.161600"><ele>396.2</ele><time>2011-05-27T14:27:21Z</time></trkpt><trkpt lat="39.194580" lon="-7.161520"><ele>394.7</ele><time>2011-05-27T14:27:27Z</time></trkpt><trkpt lat="39.195240" lon="-7.161400"><ele>388.5</ele><time>2011-05-27T14:27:39Z</time></trkpt><trkpt lat="39.195610" lon="-7.161370"><ele>386.6</ele><time>2011-05-27T14:27:50Z</time></trkpt><trkpt lat="39.195880" lon="-7.161350"><ele>385.6</ele><time>2011-05-27T14:28:00Z</time></trkpt><trkpt lat="39.196130" lon="-7.161360"><ele>382.2</ele><time>2011-05-27T14:28:26Z</time></trkpt><trkpt lat="39.196680" lon="-7.161420"><ele>377.5</ele><time>2011-05-27T14:28:42Z</time></trkpt><trkpt lat="39.196770" lon="-7.161430"><ele>376.5</ele><time>2011-05-27T14:28:53Z</time></trkpt><trkpt lat="39.196760" lon="-7.161440"><ele>376.0</ele><time>2011-05-27T14:29:13Z</time></trkpt><trkpt lat="39.197040" lon="-7.161370"><ele>374.1</ele><time>2011-05-27T14:29:40Z</time></trkpt><trkpt lat="39.197070" lon="-7.161360"><ele>373.1</ele><time>2011-05-27T14:29:40Z</time></trkpt><trkpt lat="39.197250" lon="-7.161210"><ele>367.8</ele><time>2011-05-27T14:29:48Z</time></trkpt><trkpt lat="39.197230" lon="-7.161210"><ele>367.8</ele><time>2011-05-27T14:30:10Z</time></trkpt><trkpt lat="39.197340" lon="-7.161050"><ele>367.4</ele><time>2011-05-27T14:30:17Z</time></trkpt><trkpt lat="39.197460" lon="-7.160950"><ele>367.8</ele><time>2011-05-27T14:30:19Z</time></trkpt><trkpt lat="39.198330" lon="-7.160600"><ele>359.2</ele><time>2011-05-27T14:30:36Z</time></trkpt><trkpt lat="39.198570" lon="-7.160330"><ele>353.4</ele><time>2011-05-27T14:30:46Z</time></trkpt><trkpt lat="39.198740" lon="-7.159990"><ele>351.0</ele><time>2011-05-27T14:30:59Z</time></trkpt><trkpt lat="39.198730" lon="-7.159970"><ele>350.1</ele><time>2011-05-27T14:31:24Z</time></trkpt><trkpt lat="39.198840" lon="-7.159640"><ele>352.0</ele><time>2011-05-27T14:31:32Z</time></trkpt><trkpt lat="39.198980" lon="-7.159350"><ele>355.8</ele><time>2011-05-27T14:31:40Z</time></trkpt><trkpt lat="39.199200" lon="-7.158830"><ele>356.8</ele><time>2011-05-27T14:31:51Z</time></trkpt><trkpt lat="39.199450" lon="-7.158450"><ele>355.8</ele><time>2011-05-27T14:32:02Z</time></trkpt><trkpt lat="39.199540" lon="-7.158300"><ele>353.9</ele><time>2011-05-27T14:32:11Z</time></trkpt><trkpt lat="39.199680" lon="-7.158220"><ele>352.9</ele><time>2011-05-27T14:32:44Z</time></trkpt><trkpt lat="39.199770" lon="-7.158220"><ele>351.5</ele><time>2011-05-27T14:33:55Z</time></trkpt><trkpt lat="39.199850" lon="-7.158180"><ele>351.5</ele><time>2011-05-27T14:33:59Z</time></trkpt><trkpt lat="39.200240" lon="-7.158010"><ele>354.9</ele><time>2011-05-27T14:34:13Z</time></trkpt><trkpt lat="39.200650" lon="-7.157790"><ele>352.5</ele><time>2011-05-27T14:34:26Z</time></trkpt><trkpt lat="39.201050" lon="-7.157700"><ele>343.3</ele><time>2011-05-27T14:34:39Z</time></trkpt><trkpt lat="39.201570" lon="-7.157600"><ele>340.0</ele><time>2011-05-27T14:34:52Z</time></trkpt><trkpt lat="39.202000" lon="-7.157530"><ele>339.0</ele><time>2011-05-27T14:35:06Z</time></trkpt><trkpt lat="39.202050" lon="-7.157520"><ele>336.1</ele><time>2011-05-27T14:35:19Z</time></trkpt><trkpt lat="39.202110" lon="-7.157560"><ele>335.6</ele><time>2011-05-27T14:36:01Z</time></trkpt><trkpt lat="39.202320" lon="-7.157990"><ele>335.6</ele><time>2011-05-27T14:36:14Z</time></trkpt><trkpt lat="39.202350" lon="-7.158070"><ele>333.7</ele><time>2011-05-27T14:36:17Z</time></trkpt><trkpt lat="39.202480" lon="-7.158210"><ele>335.2</ele><time>2011-05-27T14:36:21Z</time></trkpt><trkpt lat="39.202880" lon="-7.158570"><ele>331.8</ele><time>2011-05-27T14:36:35Z</time></trkpt><trkpt lat="39.203300" lon="-7.158740"><ele>330.8</ele><time>2011-05-27T14:36:45Z</time></trkpt><trkpt lat="39.203380" lon="-7.158760"><ele>331.8</ele><time>2011-05-27T14:36:48Z</time></trkpt><trkpt lat="39.203520" lon="-7.158890"><ele>330.3</ele><time>2011-05-27T14:36:55Z</time></trkpt><trkpt lat="39.203690" lon="-7.159000"><ele>328.9</ele><time>2011-05-27T14:36:59Z</time></trkpt><trkpt lat="39.203820" lon="-7.159060"><ele>328.4</ele><time>2011-05-27T14:37:02Z</time></trkpt><trkpt lat="39.203920" lon="-7.159120"><ele>327.9</ele><time>2011-05-27T14:37:03Z</time></trkpt><trkpt lat="39.204170" lon="-7.159500"><ele>327.9</ele><time>2011-05-27T14:37:17Z</time></trkpt><trkpt lat="39.204390" lon="-7.160040"><ele>324.6</ele><time>2011-05-27T14:37:30Z</time></trkpt><trkpt lat="39.204420" lon="-7.160140"><ele>322.7</ele><time>2011-05-27T14:37:31Z</time></trkpt><trkpt lat="39.204470" lon="-7.160370"><ele>323.1</ele><time>2011-05-27T14:37:35Z</time></trkpt><trkpt lat="39.204680" lon="-7.160950"><ele>324.6</ele><time>2011-05-27T14:37:48Z</time></trkpt><trkpt lat="39.204720" lon="-7.160970"><ele>324.6</ele><time>2011-05-27T14:37:49Z</time></trkpt><trkpt lat="39.205210" lon="-7.161280"><ele>326.0</ele><time>2011-05-27T14:38:02Z</time></trkpt><trkpt lat="39.205230" lon="-7.161270"><ele>326.5</ele><time>2011-05-27T14:38:13Z</time></trkpt><trkpt lat="39.205250" lon="-7.161270"><ele>326.0</ele><time>2011-05-27T14:38:42Z</time></trkpt><trkpt lat="39.205680" lon="-7.161250"><ele>320.7</ele><time>2011-05-27T14:38:54Z</time></trkpt><trkpt lat="39.205820" lon="-7.161310"><ele>320.3</ele><time>2011-05-27T14:39:03Z</time></trkpt><trkpt lat="39.205830" lon="-7.161520"><ele>318.3</ele><time>2011-05-27T14:39:11Z</time></trkpt><trkpt lat="39.205760" lon="-7.161650"><ele>316.4</ele><time>2011-05-27T14:39:34Z</time></trkpt><trkpt lat="39.205540" lon="-7.162500"><ele>317.8</ele><time>2011-05-27T14:39:45Z</time></trkpt><trkpt lat="39.205300" lon="-7.163560"><ele>321.7</ele><time>2011-05-27T14:39:57Z</time></trkpt><trkpt lat="39.205190" lon="-7.164210"><ele>327.5</ele><time>2011-05-27T14:40:08Z</time></trkpt><trkpt lat="39.205210" lon="-7.164850"><ele>325.1</ele><time>2011-05-27T14:40:20Z</time></trkpt><trkpt lat="39.205250" lon="-7.165900"><ele>329.4</ele><time>2011-05-27T14:40:35Z</time></trkpt><trkpt lat="39.205250" lon="-7.166160"><ele>330.3</ele><time>2011-05-27T14:40:44Z</time></trkpt><trkpt lat="39.205200" lon="-7.166280"><ele>330.8</ele><time>2011-05-27T14:41:09Z</time></trkpt><trkpt lat="39.205090" lon="-7.166560"><ele>327.9</ele><time>2011-05-27T14:41:17Z</time></trkpt><trkpt lat="39.204980" lon="-7.166730"><ele>325.6</ele><time>2011-05-27T14:41:41Z</time></trkpt><trkpt lat="39.204750" lon="-7.167500"><ele>327.5</ele><time>2011-05-27T14:41:51Z</time></trkpt><trkpt lat="39.204710" lon="-7.167750"><ele>327.5</ele><time>2011-05-27T14:41:53Z</time></trkpt><trkpt lat="39.204970" lon="-7.168810"><ele>329.4</ele><time>2011-05-27T14:42:04Z</time></trkpt><trkpt lat="39.205230" lon="-7.169500"><ele>329.9</ele><time>2011-05-27T14:42:12Z</time></trkpt><trkpt lat="39.205270" lon="-7.169790"><ele>327.5</ele><time>2011-05-27T14:42:16Z</time></trkpt><trkpt lat="39.205160" lon="-7.170200"><ele>325.1</ele><time>2011-05-27T14:42:20Z</time></trkpt><trkpt lat="39.205100" lon="-7.170760"><ele>326.5</ele><time>2011-05-27T14:42:26Z</time></trkpt><trkpt lat="39.204890" lon="-7.171200"><ele>331.3</ele><time>2011-05-27T14:42:31Z</time></trkpt><trkpt lat="39.204690" lon="-7.171450"><ele>335.2</ele><time>2011-05-27T14:42:35Z</time></trkpt><trkpt lat="39.204740" lon="-7.171970"><ele>340.0</ele><time>2011-05-27T14:42:42Z</time></trkpt><trkpt lat="39.204800" lon="-7.172140"><ele>340.0</ele><time>2011-05-27T14:42:43Z</time></trkpt><trkpt lat="39.204910" lon="-7.172480"><ele>340.9</ele><time>2011-05-27T14:42:51Z</time></trkpt><trkpt lat="39.205090" lon="-7.173380"><ele>348.1</ele><time>2011-05-27T14:43:02Z</time></trkpt><trkpt lat="39.205140" lon="-7.173540"><ele>351.0</ele><time>2011-05-27T14:43:05Z</time></trkpt><trkpt lat="39.205170" lon="-7.173790"><ele>352.9</ele><time>2011-05-27T14:43:09Z</time></trkpt><trkpt lat="39.205140" lon="-7.174430"><ele>354.9</ele><time>2011-05-27T14:43:18Z</time></trkpt><trkpt lat="39.205050" lon="-7.175200"><ele>352.9</ele><time>2011-05-27T14:43:30Z</time></trkpt><trkpt lat="39.205100" lon="-7.175540"><ele>350.6</ele><time>2011-05-27T14:43:36Z</time></trkpt><trkpt lat="39.205520" lon="-7.176120"><ele>352.0</ele><time>2011-05-27T14:43:48Z</time></trkpt><trkpt lat="39.205560" lon="-7.176170"><ele>352.0</ele><time>2011-05-27T14:43:52Z</time></trkpt><trkpt lat="39.205740" lon="-7.176290"><ele>350.6</ele><time>2011-05-27T14:44:03Z</time></trkpt><trkpt lat="39.205730" lon="-7.176290"><ele>350.6</ele><time>2011-05-27T14:44:12Z</time></trkpt></trkseg></trk></gpx>